sensor_id;sensor_type;location;lat;lon;timestamp;P1;durP1;ratioP1;P2;durP2;ratioP2
43710;SDS011;29309;42.682;23.372;2023-02-23T00:01:56;36.90;;;17.98;;
43710;SDS011;29309;42.682;23.372;2023-02-23T00:04:30;38.65;;;19.70;;
43710;SDS011;29309;42.682;23.372;2023-02-23T00:06:56;42.72;;;21.33;;
43710;SDS011;29309;42.682;23.372;2023-02-23T00:09:22;39.40;;;19.90;;
43710;SDS011;29309;42.682;23.372;2023-02-23T00:11:55;46.97;;;21.13;;
43710;SDS011;29309;42.682;23.372;2023-02-23T00:14:23;48.28;;;19.05;;
43710;SDS011;29309;42.682;23.372;2023-02-23T00:16:55;41.08;;;20.88;;
43710;SDS011;29309;42.682;23.372;2023-02-23T00:19:21;38.40;;;19.02;;
43710;SDS011;29309;42.682;23.372;2023-02-23T00:21:48;43.72;;;20.85;;
43710;SDS011;29309;42.682;23.372;2023-02-23T00:24:15;43.20;;;21.05;;
43710;SDS011;29309;42.682;23.372;2023-02-23T00:26:43;51.08;;;25.23;;
43710;SDS011;29309;42.682;23.372;2023-02-23T00:29:13;47.45;;;22.58;;
43710;SDS011;29309;42.682;23.372;2023-02-23T00:31:46;53.75;;;22.88;;
43710;SDS011;29309;42.682;23.372;2023-02-23T00:34:13;43.78;;;22.88;;
43710;SDS011;29309;42.682;23.372;2023-02-23T00:36:40;46.25;;;20.60;;
43710;SDS011;29309;42.682;23.372;2023-02-23T00:39:07;40.22;;;20.00;;
43710;SDS011;29309;42.682;23.372;2023-02-23T00:44:19;43.38;;;20.00;;
43710;SDS011;29309;42.682;23.372;2023-02-23T00:46:47;32.72;;;15.75;;
43710;SDS011;29309;42.682;23.372;2023-02-23T00:49:15;31.55;;;12.02;;
43710;SDS011;29309;42.682;23.372;2023-02-23T00:51:41;26.80;;;13.50;;
43710;SDS011;29309;42.682;23.372;2023-02-23T00:54:06;37.55;;;15.57;;
43710;SDS011;29309;42.682;23.372;2023-02-23T00:56:34;36.17;;;15.02;;
43710;SDS011;29309;42.682;23.372;2023-02-23T00:58:59;40.67;;;20.33;;
43710;SDS011;29309;42.682;23.372;2023-02-23T01:01:25;50.50;;;19.80;;
43710;SDS011;29309;42.682;23.372;2023-02-23T01:03:51;35.70;;;17.13;;
43710;SDS011;29309;42.682;23.372;2023-02-23T01:06:19;36.97;;;16.80;;
43710;SDS011;29309;42.682;23.372;2023-02-23T01:08:46;34.58;;;17.60;;
43710;SDS011;29309;42.682;23.372;2023-02-23T01:11:15;32.17;;;16.50;;
43710;SDS011;29309;42.682;23.372;2023-02-23T01:13:47;34.17;;;15.95;;
43710;SDS011;29309;42.682;23.372;2023-02-23T01:16:16;30.40;;;15.15;;
43710;SDS011;29309;42.682;23.372;2023-02-23T01:18:44;38.58;;;15.23;;
43710;SDS011;29309;42.682;23.372;2023-02-23T01:21:29;26.42;;;13.57;;
43710;SDS011;29309;42.682;23.372;2023-02-23T01:24:00;30.88;;;13.65;;
43710;SDS011;29309;42.682;23.372;2023-02-23T01:26:27;28.05;;;12.90;;
43710;SDS011;29309;42.682;23.372;2023-02-23T01:28:55;31.95;;;14.18;;
43710;SDS011;29309;42.682;23.372;2023-02-23T01:31:29;39.97;;;15.32;;
43710;SDS011;29309;42.682;23.372;2023-02-23T01:33:55;45.72;;;20.40;;
43710;SDS011;29309;42.682;23.372;2023-02-23T01:36:22;42.22;;;20.80;;
43710;SDS011;29309;42.682;23.372;2023-02-23T01:38:49;54.95;;;24.55;;
43710;SDS011;29309;42.682;23.372;2023-02-23T01:41:16;67.18;;;30.10;;
43710;SDS011;29309;42.682;23.372;2023-02-23T01:46:19;70.57;;;29.90;;
43710;SDS011;29309;42.682;23.372;2023-02-23T01:48:44;73.47;;;31.35;;
43710;SDS011;29309;42.682;23.372;2023-02-23T01:51:14;80.78;;;36.40;;
43710;SDS011;29309;42.682;23.372;2023-02-23T01:53:43;80.82;;;36.00;;
43710;SDS011;29309;42.682;23.372;2023-02-23T01:56:14;72.45;;;34.80;;
43710;SDS011;29309;42.682;23.372;2023-02-23T01:58:45;74.15;;;34.38;;
43710;SDS011;29309;42.682;23.372;2023-02-23T02:01:15;77.38;;;35.25;;
43710;SDS011;29309;42.682;23.372;2023-02-23T02:04:00;68.47;;;30.73;;
43710;SDS011;29309;42.682;23.372;2023-02-23T02:06:30;74.50;;;34.05;;
43710;SDS011;29309;42.682;23.372;2023-02-23T02:09:06;71.40;;;31.98;;
43710;SDS011;29309;42.682;23.372;2023-02-23T02:11:34;79.50;;;31.17;;
43710;SDS011;29309;42.682;23.372;2023-02-23T02:14:13;71.47;;;29.25;;
43710;SDS011;29309;42.682;23.372;2023-02-23T02:32:58;53.60;;;22.92;;
43710;SDS011;29309;42.682;23.372;2023-02-23T02:45:52;51.28;;;20.67;;
43710;SDS011;29309;42.682;23.372;2023-02-23T02:51:23;39.22;;;18.92;;
43710;SDS011;29309;42.682;23.372;2023-02-23T02:56:53;39.05;;;19.08;;
43710;SDS011;29309;42.682;23.372;2023-02-23T02:59:22;38.75;;;18.60;;
43710;SDS011;29309;42.682;23.372;2023-02-23T03:02:08;40.88;;;17.25;;
43710;SDS011;29309;42.682;23.372;2023-02-23T03:04:58;37.33;;;16.33;;
43710;SDS011;29309;42.682;23.372;2023-02-23T03:07:52;32.17;;;15.15;;
43710;SDS011;29309;42.682;23.372;2023-02-23T03:16:36;36.78;;;16.98;;
43710;SDS011;29309;42.682;23.372;2023-02-23T03:20:02;34.38;;;15.35;;
43710;SDS011;29309;42.682;23.372;2023-02-23T03:26:07;34.55;;;15.68;;
43710;SDS011;29309;42.682;23.372;2023-02-23T03:29:36;38.03;;;15.30;;
43710;SDS011;29309;42.682;23.372;2023-02-23T03:35:29;30.10;;;13.05;;
43710;SDS011;29309;42.682;23.372;2023-02-23T03:41:17;26.48;;;12.70;;
43710;SDS011;29309;42.682;23.372;2023-02-23T03:44:06;26.75;;;14.02;;
43710;SDS011;29309;42.682;23.372;2023-02-23T03:46:56;29.92;;;13.38;;
43710;SDS011;29309;42.682;23.372;2023-02-23T03:49:42;22.65;;;12.35;;
43710;SDS011;29309;42.682;23.372;2023-02-23T03:52:30;23.17;;;13.02;;
43710;SDS011;29309;42.682;23.372;2023-02-23T03:55:21;24.90;;;11.48;;
43710;SDS011;29309;42.682;23.372;2023-02-23T03:58:10;28.40;;;12.85;;
43710;SDS011;29309;42.682;23.372;2023-02-23T04:01:00;27.15;;;12.57;;
43710;SDS011;29309;42.682;23.372;2023-02-23T04:03:46;23.42;;;11.43;;
43710;SDS011;29309;42.682;23.372;2023-02-23T04:06:35;22.60;;;12.43;;
43710;SDS011;29309;42.682;23.372;2023-02-23T04:09:23;24.02;;;12.50;;
43710;SDS011;29309;42.682;23.372;2023-02-23T04:12:23;35.45;;;12.82;;
43710;SDS011;29309;42.682;23.372;2023-02-23T04:15:10;24.95;;;12.77;;
43710;SDS011;29309;42.682;23.372;2023-02-23T04:17:41;24.00;;;12.05;;
43710;SDS011;29309;42.682;23.372;2023-02-23T04:20:07;26.73;;;12.75;;
43710;SDS011;29309;42.682;23.372;2023-02-23T04:22:35;28.98;;;13.43;;
43710;SDS011;29309;42.682;23.372;2023-02-23T04:25:01;29.92;;;14.45;;
43710;SDS011;29309;42.682;23.372;2023-02-23T04:27:26;29.73;;;14.95;;
43710;SDS011;29309;42.682;23.372;2023-02-23T04:29:51;31.20;;;14.35;;
43710;SDS011;29309;42.682;23.372;2023-02-23T04:32:17;26.38;;;14.35;;
43710;SDS011;29309;42.682;23.372;2023-02-23T04:34:44;27.42;;;14.20;;
43710;SDS011;29309;42.682;23.372;2023-02-23T04:37:10;31.23;;;14.77;;
43710;SDS011;29309;42.682;23.372;2023-02-23T04:39:36;30.02;;;14.10;;
43710;SDS011;29309;42.682;23.372;2023-02-23T04:42:01;28.58;;;15.93;;
43710;SDS011;29309;42.682;23.372;2023-02-23T04:44:27;27.77;;;16.15;;
43710;SDS011;29309;42.682;23.372;2023-02-23T04:46:52;34.47;;;17.35;;
43710;SDS011;29309;42.682;23.372;2023-02-23T04:49:18;42.90;;;18.65;;
43710;SDS011;29309;42.682;23.372;2023-02-23T04:51:43;35.53;;;17.30;;
43710;SDS011;29309;42.682;23.372;2023-02-23T04:54:09;38.35;;;15.88;;
43710;SDS011;29309;42.682;23.372;2023-02-23T04:56:34;31.25;;;15.45;;
43710;SDS011;29309;42.682;23.372;2023-02-23T04:59:00;36.67;;;16.85;;
43710;SDS011;29309;42.682;23.372;2023-02-23T05:01:26;36.67;;;16.45;;
43710;SDS011;29309;42.682;23.372;2023-02-23T05:03:53;30.35;;;15.65;;
43710;SDS011;29309;42.682;23.372;2023-02-23T05:06:19;38.95;;;19.65;;
43710;SDS011;29309;42.682;23.372;2023-02-23T05:08:45;39.92;;;18.20;;
43710;SDS011;29309;42.682;23.372;2023-02-23T05:11:11;38.83;;;17.85;;
43710;SDS011;29309;42.682;23.372;2023-02-23T05:13:37;41.53;;;20.85;;
43710;SDS011;29309;42.682;23.372;2023-02-23T05:16:03;51.22;;;24.05;;
43710;SDS011;29309;42.682;23.372;2023-02-23T05:18:28;46.17;;;22.67;;
43710;SDS011;29309;42.682;23.372;2023-02-23T05:21:00;46.28;;;22.85;;
43710;SDS011;29309;42.682;23.372;2023-02-23T05:23:27;51.40;;;23.33;;
43710;SDS011;29309;42.682;23.372;2023-02-23T05:25:57;45.72;;;22.02;;
43710;SDS011;29309;42.682;23.372;2023-02-23T05:28:23;41.03;;;19.42;;
43710;SDS011;29309;42.682;23.372;2023-02-23T05:30:49;46.20;;;19.85;;
43710;SDS011;29309;42.682;23.372;2023-02-23T05:33:14;39.30;;;19.02;;
43710;SDS011;29309;42.682;23.372;2023-02-23T05:35:40;42.38;;;19.52;;
43710;SDS011;29309;42.682;23.372;2023-02-23T05:38:05;41.70;;;19.40;;
43710;SDS011;29309;42.682;23.372;2023-02-23T05:40:31;45.88;;;19.83;;
43710;SDS011;29309;42.682;23.372;2023-02-23T05:42:59;41.20;;;20.88;;
43710;SDS011;29309;42.682;23.372;2023-02-23T05:45:25;56.17;;;21.00;;
43710;SDS011;29309;42.682;23.372;2023-02-23T05:47:50;49.17;;;19.50;;
43710;SDS011;29309;42.682;23.372;2023-02-23T05:50:16;44.33;;;20.38;;
43710;SDS011;29309;42.682;23.372;2023-02-23T05:52:42;53.35;;;20.83;;
43710;SDS011;29309;42.682;23.372;2023-02-23T05:55:08;49.13;;;21.45;;
43710;SDS011;29309;42.682;23.372;2023-02-23T05:57:35;43.50;;;21.52;;
43710;SDS011;29309;42.682;23.372;2023-02-23T06:00:02;51.60;;;23.35;;
43710;SDS011;29309;42.682;23.372;2023-02-23T06:02:28;53.72;;;25.95;;
43710;SDS011;29309;42.682;23.372;2023-02-23T06:04:54;51.33;;;24.27;;
43710;SDS011;29309;42.682;23.372;2023-02-23T06:07:19;51.38;;;24.35;;
43710;SDS011;29309;42.682;23.372;2023-02-23T06:09:45;58.40;;;28.52;;
43710;SDS011;29309;42.682;23.372;2023-02-23T06:12:10;67.93;;;34.15;;
43710;SDS011;29309;42.682;23.372;2023-02-23T06:14:36;70.43;;;35.53;;
43710;SDS011;29309;42.682;23.372;2023-02-23T06:17:01;63.88;;;33.00;;
43710;SDS011;29309;42.682;23.372;2023-02-23T06:19:27;98.05;;;38.03;;
43710;SDS011;29309;42.682;23.372;2023-02-23T06:21:52;84.05;;;38.38;;
43710;SDS011;29309;42.682;23.372;2023-02-23T06:24:18;89.05;;;43.88;;
43710;SDS011;29309;42.682;23.372;2023-02-23T06:26:44;87.95;;;42.92;;
43710;SDS011;29309;42.682;23.372;2023-02-23T06:29:10;88.25;;;40.10;;
43710;SDS011;29309;42.682;23.372;2023-02-23T06:31:36;74.30;;;37.50;;
43710;SDS011;29309;42.682;23.372;2023-02-23T06:34:02;75.88;;;36.33;;
43710;SDS011;29309;42.682;23.372;2023-02-23T06:36:27;70.43;;;31.67;;
43710;SDS011;29309;42.682;23.372;2023-02-23T06:38:56;48.60;;;27.27;;
43710;SDS011;29309;42.682;23.372;2023-02-23T06:41:23;54.53;;;27.27;;
43710;SDS011;29309;42.682;23.372;2023-02-23T06:43:49;52.50;;;28.45;;
43710;SDS011;29309;42.682;23.372;2023-02-23T06:46:15;60.20;;;31.08;;
43710;SDS011;29309;42.682;23.372;2023-02-23T06:48:40;71.45;;;35.92;;
43710;SDS011;29309;42.682;23.372;2023-02-23T06:51:06;65.55;;;31.55;;
43710;SDS011;29309;42.682;23.372;2023-02-23T06:53:32;54.03;;;29.38;;
43710;SDS011;29309;42.682;23.372;2023-02-23T06:56:00;61.47;;;28.95;;
43710;SDS011;29309;42.682;23.372;2023-02-23T06:58:27;56.53;;;27.80;;
43710;SDS011;29309;42.682;23.372;2023-02-23T07:00:54;55.95;;;26.75;;
43710;SDS011;29309;42.682;23.372;2023-02-23T07:03:21;47.35;;;24.38;;
43710;SDS011;29309;42.682;23.372;2023-02-23T07:05:47;47.83;;;23.80;;
43710;SDS011;29309;42.682;23.372;2023-02-23T07:08:14;44.25;;;23.52;;
43710;SDS011;29309;42.682;23.372;2023-02-23T07:10:40;48.70;;;25.50;;
43710;SDS011;29309;42.682;23.372;2023-02-23T07:13:05;52.50;;;23.75;;
43710;SDS011;29309;42.682;23.372;2023-02-23T07:15:31;48.63;;;23.77;;
43710;SDS011;29309;42.682;23.372;2023-02-23T07:17:56;64.20;;;24.02;;
43710;SDS011;29309;42.682;23.372;2023-02-23T07:20:22;52.58;;;24.05;;
43710;SDS011;29309;42.682;23.372;2023-02-23T07:22:47;38.03;;;21.35;;
43710;SDS011;29309;42.682;23.372;2023-02-23T07:25:13;42.05;;;21.55;;
43710;SDS011;29309;42.682;23.372;2023-02-23T07:27:38;39.85;;;20.67;;
43710;SDS011;29309;42.682;23.372;2023-02-23T07:30:06;41.80;;;20.73;;
43710;SDS011;29309;42.682;23.372;2023-02-23T07:32:32;42.25;;;20.55;;
43710;SDS011;29309;42.682;23.372;2023-02-23T07:34:57;46.78;;;21.48;;
43710;SDS011;29309;42.682;23.372;2023-02-23T07:37:23;36.55;;;19.92;;
43710;SDS011;29309;42.682;23.372;2023-02-23T07:39:48;45.13;;;20.45;;
43710;SDS011;29309;42.682;23.372;2023-02-23T07:42:14;41.45;;;20.27;;
43710;SDS011;29309;42.682;23.372;2023-02-23T07:44:39;46.75;;;21.25;;
43710;SDS011;29309;42.682;23.372;2023-02-23T07:47:05;35.83;;;20.00;;
43710;SDS011;29309;42.682;23.372;2023-02-23T07:49:31;36.65;;;18.38;;
43710;SDS011;29309;42.682;23.372;2023-02-23T07:51:57;34.05;;;17.83;;
43710;SDS011;29309;42.682;23.372;2023-02-23T07:54:23;38.20;;;16.73;;
43710;SDS011;29309;42.682;23.372;2023-02-23T07:56:50;28.33;;;13.90;;
43710;SDS011;29309;42.682;23.372;2023-02-23T07:59:16;28.83;;;15.05;;
43710;SDS011;29309;42.682;23.372;2023-02-23T08:01:41;33.67;;;13.90;;
43710;SDS011;29309;42.682;23.372;2023-02-23T08:04:07;28.13;;;14.90;;
43710;SDS011;29309;42.682;23.372;2023-02-23T08:06:33;27.27;;;15.95;;
43710;SDS011;29309;42.682;23.372;2023-02-23T08:08:58;30.25;;;16.35;;
43710;SDS011;29309;42.682;23.372;2023-02-23T08:11:27;23.90;;;13.50;;
43710;SDS011;29309;42.682;23.372;2023-02-23T08:13:53;29.08;;;14.50;;
43710;SDS011;29309;42.682;23.372;2023-02-23T08:16:24;26.67;;;13.63;;
43710;SDS011;29309;42.682;23.372;2023-02-23T08:18:55;18.98;;;12.50;;
43710;SDS011;29309;42.682;23.372;2023-02-23T08:21:22;19.38;;;11.88;;
43710;SDS011;29309;42.682;23.372;2023-02-23T08:23:48;19.45;;;11.20;;
43710;SDS011;29309;42.682;23.372;2023-02-23T08:26:13;16.63;;;10.38;;
43710;SDS011;29309;42.682;23.372;2023-02-23T08:28:39;19.77;;;10.98;;
43710;SDS011;29309;42.682;23.372;2023-02-23T08:31:09;18.50;;;11.35;;
43710;SDS011;29309;42.682;23.372;2023-02-23T08:33:35;22.10;;;11.07;;
43710;SDS011;29309;42.682;23.372;2023-02-23T08:36:01;17.90;;;10.90;;
43710;SDS011;29309;42.682;23.372;2023-02-23T08:38:28;18.58;;;10.88;;
43710;SDS011;29309;42.682;23.372;2023-02-23T08:40:53;18.70;;;11.02;;
43710;SDS011;29309;42.682;23.372;2023-02-23T08:43:19;22.30;;;10.70;;
43710;SDS011;29309;42.682;23.372;2023-02-23T08:45:44;18.35;;;10.15;;
43710;SDS011;29309;42.682;23.372;2023-02-23T08:48:10;17.65;;;10.73;;
43710;SDS011;29309;42.682;23.372;2023-02-23T08:50:35;18.23;;;9.70;;
43710;SDS011;29309;42.682;23.372;2023-02-23T08:53:01;20.25;;;10.43;;
43710;SDS011;29309;42.682;23.372;2023-02-23T08:55:26;22.08;;;10.52;;
43710;SDS011;29309;42.682;23.372;2023-02-23T08:57:52;15.30;;;9.50;;
43710;SDS011;29309;42.682;23.372;2023-02-23T09:00:17;16.48;;;8.98;;
43710;SDS011;29309;42.682;23.372;2023-02-23T09:02:44;17.77;;;10.00;;
43710;SDS011;29309;42.682;23.372;2023-02-23T09:05:12;19.27;;;8.50;;
43710;SDS011;29309;42.682;23.372;2023-02-23T09:07:38;19.70;;;8.90;;
43710;SDS011;29309;42.682;23.372;2023-02-23T09:10:05;18.55;;;9.90;;
43710;SDS011;29309;42.682;23.372;2023-02-23T09:12:31;20.60;;;9.98;;
43710;SDS011;29309;42.682;23.372;2023-02-23T09:14:56;19.52;;;10.95;;
43710;SDS011;29309;42.682;23.372;2023-02-23T09:17:22;22.52;;;12.27;;
43710;SDS011;29309;42.682;23.372;2023-02-23T09:19:48;47.10;;;12.32;;
43710;SDS011;29309;42.682;23.372;2023-02-23T09:22:14;27.42;;;13.45;;
43710;SDS011;29309;42.682;23.372;2023-02-23T09:24:42;28.65;;;12.65;;
43710;SDS011;29309;42.682;23.372;2023-02-23T09:27:08;26.70;;;11.35;;
43710;SDS011;29309;42.682;23.372;2023-02-23T09:29:36;24.98;;;12.68;;
43710;SDS011;29309;42.682;23.372;2023-02-23T09:32:05;34.05;;;13.95;;
43710;SDS011;29309;42.682;23.372;2023-02-23T09:34:49;24.10;;;12.35;;
43710;SDS011;29309;42.682;23.372;2023-02-23T09:37:16;16.95;;;10.43;;
43710;SDS011;29309;42.682;23.372;2023-02-23T09:39:41;25.30;;;11.07;;
43710;SDS011;29309;42.682;23.372;2023-02-23T09:45:15;20.17;;;11.15;;
43710;SDS011;29309;42.682;23.372;2023-02-23T09:50:29;20.15;;;10.70;;
43710;SDS011;29309;42.682;23.372;2023-02-23T09:53:02;15.55;;;9.10;;
43710;SDS011;29309;42.682;23.372;2023-02-23T09:55:34;19.25;;;8.65;;
43710;SDS011;29309;42.682;23.372;2023-02-23T09:58:05;16.50;;;9.65;;
43710;SDS011;29309;42.682;23.372;2023-02-23T10:00:40;22.77;;;10.30;;
43710;SDS011;29309;42.682;23.372;2023-02-23T10:03:15;24.65;;;9.07;;
43710;SDS011;29309;42.682;23.372;2023-02-23T10:05:52;17.15;;;9.23;;
43710;SDS011;29309;42.682;23.372;2023-02-23T10:11:27;21.33;;;8.57;;
43710;SDS011;29309;42.682;23.372;2023-02-23T10:14:03;13.30;;;6.88;;
43710;SDS011;29309;42.682;23.372;2023-02-23T10:22:34;14.35;;;6.70;;
43710;SDS011;29309;42.682;23.372;2023-02-23T10:25:04;15.02;;;8.45;;
43710;SDS011;29309;42.682;23.372;2023-02-23T10:27:39;23.45;;;9.25;;
43710;SDS011;29309;42.682;23.372;2023-02-23T10:32:58;20.35;;;9.57;;
43710;SDS011;29309;42.682;23.372;2023-02-23T10:35:26;20.98;;;10.52;;
43710;SDS011;29309;42.682;23.372;2023-02-23T10:37:54;22.70;;;9.35;;
43710;SDS011;29309;42.682;23.372;2023-02-23T10:40:22;18.17;;;8.45;;
43710;SDS011;29309;42.682;23.372;2023-02-23T10:42:51;13.27;;;7.45;;
43710;SDS011;29309;42.682;23.372;2023-02-23T10:45:19;16.40;;;7.03;;
43710;SDS011;29309;42.682;23.372;2023-02-23T10:47:56;16.20;;;7.28;;
43710;SDS011;29309;42.682;23.372;2023-02-23T10:50:24;12.00;;;6.30;;
43710;SDS011;29309;42.682;23.372;2023-02-23T10:52:52;10.40;;;5.78;;
43710;SDS011;29309;42.682;23.372;2023-02-23T10:55:24;12.02;;;5.65;;
43710;SDS011;29309;42.682;23.372;2023-02-23T10:58:07;12.25;;;7.65;;
43710;SDS011;29309;42.682;23.372;2023-02-23T11:00:41;17.15;;;6.93;;
43710;SDS011;29309;42.682;23.372;2023-02-23T11:03:27;12.90;;;5.47;;
43710;SDS011;29309;42.682;23.372;2023-02-23T11:06:01;11.48;;;5.32;;
43710;SDS011;29309;42.682;23.372;2023-02-23T11:13:42;11.70;;;7.05;;
43710;SDS011;29309;42.682;23.372;2023-02-23T11:16:18;12.95;;;6.30;;
43710;SDS011;29309;42.682;23.372;2023-02-23T11:18:53;12.27;;;6.78;;
43710;SDS011;29309;42.682;23.372;2023-02-23T11:21:25;14.13;;;6.65;;
43710;SDS011;29309;42.682;23.372;2023-02-23T11:23:58;10.70;;;6.13;;
43710;SDS011;29309;42.682;23.372;2023-02-23T11:29:02;10.38;;;5.82;;
43710;SDS011;29309;42.682;23.372;2023-02-23T11:31:38;7.43;;;5.20;;
43710;SDS011;29309;42.682;23.372;2023-02-23T11:34:04;8.85;;;5.90;;
43710;SDS011;29309;42.682;23.372;2023-02-23T11:36:32;11.35;;;5.40;;
43710;SDS011;29309;42.682;23.372;2023-02-23T11:41:40;6.88;;;4.25;;
43710;SDS011;29309;42.682;23.372;2023-02-23T11:44:08;10.63;;;4.30;;
43710;SDS011;29309;42.682;23.372;2023-02-23T11:46:43;7.72;;;3.42;;
43710;SDS011;29309;42.682;23.372;2023-02-23T11:49:13;9.93;;;4.80;;
43710;SDS011;29309;42.682;23.372;2023-02-23T11:51:48;8.45;;;5.05;;
43710;SDS011;29309;42.682;23.372;2023-02-23T11:54:24;8.10;;;3.78;;
43710;SDS011;29309;42.682;23.372;2023-02-23T11:56:53;4.93;;;4.38;;
43710;SDS011;29309;42.682;23.372;2023-02-23T11:59:27;5.70;;;3.40;;
43710;SDS011;29309;42.682;23.372;2023-02-23T12:02:18;7.20;;;2.95;;
43710;SDS011;29309;42.682;23.372;2023-02-23T12:05:08;7.35;;;4.13;;
43710;SDS011;29309;42.682;23.372;2023-02-23T12:10:23;7.38;;;3.90;;
43710;SDS011;29309;42.682;23.372;2023-02-23T12:12:58;8.27;;;5.22;;
43710;SDS011;29309;42.682;23.372;2023-02-23T12:15:43;8.70;;;4.82;;
43710;SDS011;29309;42.682;23.372;2023-02-23T12:21:29;6.68;;;4.50;;
43710;SDS011;29309;42.682;23.372;2023-02-23T12:23:57;10.30;;;5.10;;
43710;SDS011;29309;42.682;23.372;2023-02-23T12:32:24;7.43;;;5.43;;
43710;SDS011;29309;42.682;23.372;2023-02-23T12:34:54;10.73;;;4.65;;
43710;SDS011;29309;42.682;23.372;2023-02-23T12:40:03;7.60;;;4.93;;
43710;SDS011;29309;42.682;23.372;2023-02-23T12:42:46;8.90;;;4.50;;
43710;SDS011;29309;42.682;23.372;2023-02-23T12:45:49;6.80;;;4.35;;
43710;SDS011;29309;42.682;23.372;2023-02-23T12:50:57;8.80;;;4.15;;
43710;SDS011;29309;42.682;23.372;2023-02-23T12:53:30;9.30;;;3.85;;
43710;SDS011;29309;42.682;23.372;2023-02-23T12:58:48;7.43;;;4.10;;
43710;SDS011;29309;42.682;23.372;2023-02-23T13:04:10;11.23;;;3.95;;
43710;SDS011;29309;42.682;23.372;2023-02-23T13:06:49;6.63;;;4.07;;
43710;SDS011;29309;42.682;23.372;2023-02-23T13:12:20;8.68;;;3.83;;
43710;SDS011;29309;42.682;23.372;2023-02-23T13:14:57;6.22;;;3.70;;
43710;SDS011;29309;42.682;23.372;2023-02-23T13:20:52;10.02;;;3.40;;
43710;SDS011;29309;42.682;23.372;2023-02-23T13:23:35;15.95;;;3.50;;
43710;SDS011;29309;42.682;23.372;2023-02-23T13:26:10;7.32;;;3.92;;
43710;SDS011;29309;42.682;23.372;2023-02-23T13:28:51;12.52;;;4.60;;
43710;SDS011;29309;42.682;23.372;2023-02-23T13:31:37;6.03;;;3.97;;
43710;SDS011;29309;42.682;23.372;2023-02-23T13:34:06;11.50;;;4.80;;
43710;SDS011;29309;42.682;23.372;2023-02-23T13:36:36;12.80;;;4.72;;
43710;SDS011;29309;42.682;23.372;2023-02-23T13:41:38;13.18;;;4.68;;
43710;SDS011;29309;42.682;23.372;2023-02-23T13:44:21;7.78;;;3.80;;
43710;SDS011;29309;42.682;23.372;2023-02-23T13:46:55;10.35;;;6.05;;
43710;SDS011;29309;42.682;23.372;2023-02-23T13:49:56;11.30;;;5.03;;
43710;SDS011;29309;42.682;23.372;2023-02-23T13:52:30;9.55;;;5.00;;
43710;SDS011;29309;42.682;23.372;2023-02-23T13:54:57;9.13;;;3.75;;
43710;SDS011;29309;42.682;23.372;2023-02-23T13:57:27;8.50;;;3.70;;
43710;SDS011;29309;42.682;23.372;2023-02-23T13:59:53;14.50;;;3.95;;
43710;SDS011;29309;42.682;23.372;2023-02-23T14:05:41;9.95;;;4.50;;
43710;SDS011;29309;42.682;23.372;2023-02-23T14:08:19;10.48;;;5.70;;
43710;SDS011;29309;42.682;23.372;2023-02-23T14:10:46;6.55;;;4.40;;
43710;SDS011;29309;42.682;23.372;2023-02-23T14:18:03;15.00;;;4.07;;
43710;SDS011;29309;42.682;23.372;2023-02-23T14:20:56;9.77;;;5.15;;
43710;SDS011;29309;42.682;23.372;2023-02-23T14:23:27;13.38;;;4.78;;
43710;SDS011;29309;42.682;23.372;2023-02-23T14:28:36;11.75;;;3.67;;
43710;SDS011;29309;42.682;23.372;2023-02-23T14:44:28;7.65;;;4.53;;
43710;SDS011;29309;42.682;23.372;2023-02-23T14:49:25;8.25;;;4.25;;
43710;SDS011;29309;42.682;23.372;2023-02-23T14:51:53;13.57;;;5.72;;
43710;SDS011;29309;42.682;23.372;2023-02-23T14:54:25;17.08;;;5.43;;
43710;SDS011;29309;42.682;23.372;2023-02-23T14:57:02;10.90;;;4.80;;
43710;SDS011;29309;42.682;23.372;2023-02-23T14:59:39;10.43;;;5.75;;
43710;SDS011;29309;42.682;23.372;2023-02-23T15:02:20;10.57;;;5.07;;
43710;SDS011;29309;42.682;23.372;2023-02-23T15:04:48;20.58;;;5.93;;
43710;SDS011;29309;42.682;23.372;2023-02-23T15:07:15;10.77;;;5.18;;
43710;SDS011;29309;42.682;23.372;2023-02-23T15:09:48;9.48;;;4.70;;
43710;SDS011;29309;42.682;23.372;2023-02-23T15:12:20;9.20;;;4.40;;
43710;SDS011;29309;42.682;23.372;2023-02-23T15:14:51;7.75;;;4.35;;
43710;SDS011;29309;42.682;23.372;2023-02-23T15:17:20;11.48;;;3.80;;
43710;SDS011;29309;42.682;23.372;2023-02-23T15:19:49;31.23;;;4.45;;
43710;SDS011;29309;42.682;23.372;2023-02-23T15:22:25;11.88;;;4.68;;
43710;SDS011;29309;42.682;23.372;2023-02-23T15:24:55;14.52;;;5.13;;
43710;SDS011;29309;42.682;23.372;2023-02-23T15:27:27;8.23;;;4.72;;
43710;SDS011;29309;42.682;23.372;2023-02-23T15:32:47;12.70;;;5.82;;
43710;SDS011;29309;42.682;23.372;2023-02-23T15:35:13;16.98;;;7.28;;
43710;SDS011;29309;42.682;23.372;2023-02-23T15:37:40;11.50;;;5.25;;
43710;SDS011;29309;42.682;23.372;2023-02-23T15:40:15;13.52;;;5.50;;
43710;SDS011;29309;42.682;23.372;2023-02-23T15:42:46;10.98;;;5.97;;
43710;SDS011;29309;42.682;23.372;2023-02-23T15:47:52;9.57;;;5.68;;
43710;SDS011;29309;42.682;23.372;2023-02-23T15:50:27;12.02;;;6.13;;
43710;SDS011;29309;42.682;23.372;2023-02-23T15:53:04;12.57;;;5.97;;
43710;SDS011;29309;42.682;23.372;2023-02-23T15:55:37;14.32;;;6.00;;
43710;SDS011;29309;42.682;23.372;2023-02-23T15:58:11;13.00;;;6.07;;
43710;SDS011;29309;42.682;23.372;2023-02-23T16:00:42;11.00;;;6.22;;
43710;SDS011;29309;42.682;23.372;2023-02-23T16:03:27;12.43;;;5.70;;
43710;SDS011;29309;42.682;23.372;2023-02-23T16:05:58;14.00;;;6.25;;
43710;SDS011;29309;42.682;23.372;2023-02-23T16:08:28;15.13;;;5.85;;
43710;SDS011;29309;42.682;23.372;2023-02-23T16:11:15;14.07;;;5.68;;
43710;SDS011;29309;42.682;23.372;2023-02-23T16:13:43;13.18;;;6.20;;
43710;SDS011;29309;42.682;23.372;2023-02-23T16:16:09;18.67;;;5.70;;
43710;SDS011;29309;42.682;23.372;2023-02-23T16:18:44;13.50;;;5.25;;
43710;SDS011;29309;42.682;23.372;2023-02-23T16:21:22;10.80;;;5.70;;
43710;SDS011;29309;42.682;23.372;2023-02-23T16:23:49;11.38;;;5.32;;
43710;SDS011;29309;42.682;23.372;2023-02-23T16:26:17;12.88;;;5.65;;
43710;SDS011;29309;42.682;23.372;2023-02-23T16:28:50;12.45;;;5.80;;
43710;SDS011;29309;42.682;23.372;2023-02-23T16:31:23;15.30;;;7.30;;
43710;SDS011;29309;42.682;23.372;2023-02-23T16:34:16;23.85;;;7.40;;
43710;SDS011;29309;42.682;23.372;2023-02-23T16:36:47;18.08;;;6.60;;
43710;SDS011;29309;42.682;23.372;2023-02-23T16:39:14;11.20;;;5.70;;
43710;SDS011;29309;42.682;23.372;2023-02-23T16:41:42;15.38;;;6.50;;
43710;SDS011;29309;42.682;23.372;2023-02-23T16:44:12;11.23;;;6.15;;
43710;SDS011;29309;42.682;23.372;2023-02-23T16:49:25;16.33;;;7.13;;
43710;SDS011;29309;42.682;23.372;2023-02-23T16:51:55;13.55;;;6.10;;
43710;SDS011;29309;42.682;23.372;2023-02-23T16:54:21;19.80;;;6.38;;
43710;SDS011;29309;42.682;23.372;2023-02-23T16:56:46;16.10;;;6.97;;
43710;SDS011;29309;42.682;23.372;2023-02-23T16:59:14;17.08;;;8.23;;
43710;SDS011;29309;42.682;23.372;2023-02-23T17:01:42;13.75;;;8.43;;
43710;SDS011;29309;42.682;23.372;2023-02-23T17:04:12;14.52;;;7.38;;
43710;SDS011;29309;42.682;23.372;2023-02-23T17:06:42;14.43;;;7.65;;